Time;durP1;ratioP1;P1;durP2;ratioP2;P2;SDS_P1;SDS_P2;PMS_P1;PMS_P2;Temp;Humidity;BMP_temperature;BMP_pressure;BME280_temperature;BME280_humidity;BME280_pressure;Samples;Min_cycle;Max_cycle;Signal;HPM_P1;HPM_P2
2023/01/03 07:54:11;;;;;;;3.35;1.70;;;;;;;4.19;92.15;97799.03;2027904;28;20588;-55
2023/01/03 07:57:31;;;;;;;4.82;1.60;;;;;;;4.79;90.64;97805.84;2082395;28;20573;-56
2023/01/03 07:58:33;;;;;;;2.88;1.83;;;;;;;4.84;89.63;97817.91;2084644;28;20208;-57
2023/01/03 08:01:43;;;;;;;5.35;1.50;;;;;;;5.11;88.42;97808.31;2098531;27;21245;-55
2023/01/03 08:02:45;;;;;;;4.68;1.60;;;;;;;5.21;88.14;97819.50;2097396;28;20195;-56
2023/01/03 08:05:42;;;;;;;12.45;4.60;;;;;;;5.09;85.82;97811.78;2083983;28;20544;-56
2023/01/03 08:06:44;;;;;;;8.32;4.10;;;;;;;5.18;86.12;97819.50;2086067;28;20208;-56
2023/01/03 08:07:50;;;;;;;11.15;5.40;;;;;;;5.52;85.91;97814.13;2086194;28;20290;-56
2023/01/03 09:15:00;;;;;;;13.75;6.40;;;;;;;5.62;85.12;97849.50;2085346;28;20556;-56
2023/01/03 09:17:14;;;;;;;11.40;5.50;;;;;;;5.58;85.40;97863.34;2101521;27;20557;-56
2023/01/03 09:18:15;;;;;;;10.98;5.85;;;;;;;5.26;84.79;97811.69;2097942;28;20330;-57
2023/01/03 09:19:17;;;;;;;10.55;5.70;;;;;;;5.60;85.24;97865.91;2098338;28;20193;-57
2023/01/03 09:20:18;;;;;;;12.65;5.50;;;;;;;5.65;84.74;97864.16;2098731;28;20627;-57
2023/01/03 09:21:20;;;;;;;10.00;6.00;;;;;;;5.66;84.44;97865.88;2088016;27;20224;-56
2023/01/03 09:22:21;;;;;;;23.17;11.95;;;;;;;5.76;84.18;97871.88;2082417;28;20196;-57
2023/01/03 09:23:22;;;;;;;15.18;8.07;;;;;;;5.72;83.83;97866.72;2080824;28;20220;-57
2023/01/03 09:24:24;;;;;;;8.75;5.72;;;;;;;5.76;84.34;97864.13;2080670;28;20205;-57
2023/01/03 09:25:25;;;;;;;10.75;6.00;;;;;;;5.69;84.17;97871.06;2082694;28;20215;-57
2023/01/03 09:26:33;;;;;;;9.15;6.13;;;;;;;5.58;84.11;97868.53;2090393;28;20815;-57
2023/01/03 09:27:35;;;;;;;10.43;5.80;;;;;;;5.69;84.17;97873.66;2091891;28;20192;-57
2023/01/03 09:28:37;;;;;;;10.95;6.40;;;;;;;5.59;84.02;97878.03;2090120;28;20199;-57
2023/01/03 09:29:39;;;;;;;10.55;6.30;;;;;;;5.71;84.44;97877.09;2086763;28;20200;-57
2023/01/03 09:30:40;;;;;;;14.00;7.15;;;;;;;5.88;83.78;97877.84;2089164;28;20245;-57
2023/01/03 09:31:41;;;;;;;13.15;7.05;;;;;;;6.07;83.15;97882.97;2087918;28;20318;-57
2023/01/03 09:32:49;;;;;;;9.40;6.13;;;;;;;6.03;82.96;97876.06;2089508;28;20240;-57
2023/01/03 09:33:51;;;;;;;11.30;5.57;;;;;;;6.14;82.38;97883.78;2089003;28;20534;-57
2023/01/03 09:34:52;;;;;;;10.90;5.38;;;;;;;6.26;82.59;97886.28;2091096;28;20289;-57
2023/01/03 09:35:54;;;;;;;12.27;5.90;;;;;;;6.32;81.92;97891.44;2088363;28;20203;-57
2023/01/03 09:36:55;;;;;;;10.02;5.07;;;;;;;6.39;81.73;97887.03;2088420;28;20299;-57
2023/01/03 09:37:57;;;;;;;10.45;5.53;;;;;;;6.46;81.23;97880.94;2089238;28;20193;-57
2023/01/03 09:38:59;;;;;;;12.23;6.28;;;;;;;6.47;81.15;97886.97;2090127;28;20207;-57
2023/01/03 09:40:00;;;;;;;12.32;7.20;;;;;;;6.56;80.73;97886.88;2090898;28;20341;-57
2023/01/03 09:41:05;;;;;;;13.25;7.50;;;;;;;6.48;81.03;97886.13;2090191;28;20220;-57
2023/01/03 09:43:42;;;;;;;12.00;6.95;;;;;;;6.79;80.50;97878.03;2090655;28;20721;-57
2023/01/03 09:44:45;;;;;;;11.98;7.00;;;;;;;6.89;79.67;97894.38;2090287;28;20290;-59
2023/01/03 09:45:53;;;;;;;12.15;6.85;;;;;;;6.77;79.79;97882.41;2086271;28;20192;-57
2023/01/03 09:46:55;;;;;;;22.73;7.20;;;;;;;6.82;79.78;97888.41;2089713;28;20192;-56
2023/01/03 09:47:59;;;;;;;11.77;6.13;;;;;;;6.82;79.60;97889.25;2088922;28;20199;-57
2023/01/03 09:49:04;;;;;;;16.30;6.50;;;;;;;6.76;79.80;97889.31;2089659;28;20227;-57
2023/01/03 09:50:16;;;;;;;10.57;6.45;;;;;;;6.53;80.65;97885.19;2088942;28;20200;-57
2023/01/03 10:03:53;;;;;;;9.35;6.20;;;;;;;6.66;81.51;97895.47;2099539;28;20199;-56
2023/01/03 10:05:10;;;;;;;10.57;6.40;;;;;;;6.85;80.75;97883.16;2099070;28;20749;-57
2023/01/03 10:06:20;;;;;;;13.18;6.38;;;;;;;6.93;80.32;97883.97;2097533;27;20223;-57
2023/01/03 10:07:27;;;;;;;7.35;5.00;;;;;;;7.07;79.92;97883.78;2097801;28;20325;-57
2023/01/03 10:08:37;;;;;;;10.50;6.05;;;;;;;7.26;79.55;97884.47;2094928;28;20204;-56
2023/01/03 10:09:58;;;;;;;14.63;6.18;;;;;;;7.41;78.57;97882.56;2096115;28;20196;-56
2023/01/03 10:11:07;;;;;;;12.43;6.00;;;;;;;7.64;77.92;97883.13;2095651;28;20215;-57
2023/01/03 10:12:24;;;;;;;9.85;5.88;;;;;;;7.79;77.08;97881.19;2098494;28;20204;-56
2023/01/03 10:13:40;;;;;;;12.40;6.57;;;;;;;7.93;76.79;97887.06;2099006;28;20631;-57
2023/01/03 10:15:09;;;;;;;11.57;6.25;;;;;;;8.18;75.44;97871.09;2099270;28;20206;-57
2023/01/03 10:16:34;;;;;;;15.35;6.28;;;;;;;8.45;74.29;97882.78;2098066;28;20253;-57
2023/01/03 10:17:57;;;;;;;8.90;5.68;;;;;;;8.32;73.58;97883.88;2096370;28;20215;-56
2023/01/03 10:19:09;;;;;;;14.20;6.18;;;;;;;8.62;73.57;97882.56;2097670;28;20196;-56
2023/01/03 10:20:39;;;;;;;10.27;6.13;;;;;;;8.74;73.18;97878.88;2100738;28;20191;-57
2023/01/03 10:21:59;;;;;;;13.00;5.85;;;;;;;9.10;72.14;97883.44;2091292;28;20303;-57
2023/01/03 10:23:04;;;;;;;11.48;5.95;;;;;;;9.72;69.88;97884.81;2099115;28;20653;-57
2023/01/03 10:24:29;;;;;;;8.75;5.63;;;;;;;11.13;66.23;97879.69;2098231;28;20203;-56
2023/01/03 10:25:30;;;;;;;11.18;6.40;;;;;;;11.45;64.03;97891.00;2099911;28;20199;-57
2023/01/03 10:26:32;;;;;;;11.25;6.32;;;;;;;12.22;62.37;97874.78;2095919;27;20229;-56
2023/01/03 10:27:37;;;;;;;14.50;7.38;;;;;;;12.99;60.15;97882.72;2094784;28;20200;-57
2023/01/03 10:28:43;;;;;;;16.42;7.10;;;;;;;13.46;58.79;97876.72;2090847;28;20633;-57
2023/01/03 10:29:46;;;;;;;13.90;7.13;;;;;;;14.11;56.84;97887.41;2092116;28;20228;-57
2023/01/03 10:31:02;;;;;;;10.43;6.00;;;;;;;14.67;55.27;97887.84;2090713;28;20191;-56
2023/01/03 10:32:17;;;;;;;11.43;5.55;;;;;;;15.01;53.93;97881.16;2093023;28;20287;-57
2023/01/03 10:33:30;;;;;;;7.72;4.68;;;;;;;15.40;52.98;97884.72;2095315;28;20245;-57
2023/01/03 10:34:31;;;;;;;8.23;4.30;;;;;;;15.52;52.38;97871.88;2091041;28;20774;-57
2023/01/03 10:35:35;;;;;;;8.75;3.97;;;;;;;15.75;51.41;97882.28;2092251;28;20282;-57
2023/01/03 10:36:36;;;;;;;12.23;5.20;;;;;;;15.65;51.45;97880.06;2092829;28;20235;-56
2023/01/03 10:37:39;;;;;;;9.60;4.05;;;;;;;16.10;50.88;97878.03;2092657;28;20575;-57
2023/01/03 10:38:43;;;;;;;5.80;3.00;;;;;;;16.49;50.12;97878.81;2090834;28;20222;-57
2023/01/03 10:40:02;;;;;;;6.22;2.08;;;;;;;16.27;49.24;97874.59;2091326;28;20644;-57
2023/01/03 10:41:13;;;;;;;5.40;3.20;;;;;;;16.69;48.99;97882.25;2091434;28;20285;-56
2023/01/03 10:42:17;;;;;;;4.57;2.60;;;;;;;16.45;49.30;97872.84;2094654;28;20206;-57
2023/01/03 10:43:38;;;;;;;6.05;4.00;;;;;;;16.59;49.07;97876.59;2092308;28;20199;-57
2023/01/03 10:44:55;;;;;;;5.30;3.40;;;;;;;16.36;49.33;97878.56;2093302;28;20207;-57
2023/01/03 10:46:01;;;;;;;11.50;3.67;;;;;;;16.44;49.22;97875.56;2090865;28;20587;-57
2023/01/03 10:47:15;;;;;;;35.78;22.52;;;;;;;17.16;48.19;97868.47;2091515;28;20210;-57
2023/01/03 10:48:16;;;;;;;14.52;8.90;;;;;;;17.50;47.35;97866.69;2093469;28;20662;-56
2023/01/03 10:49:22;;;;;;;6.95;3.30;;;;;;;17.08;47.48;97863.59;2092312;28;20598;-60
2023/01/03 10:50:36;;;;;;;9.27;2.92;;;;;;;16.15;49.94;97864.63;2092710;28;20334;-56
2023/01/03 10:51:54;;;;;;;8.05;4.00;;;;;;;16.43;50.00;97860.66;2088766;28;20208;-56
2023/01/03 10:53:05;;;;;;;10.50;5.07;;;;;;;16.52;49.31;97860.22;2089879;28;20199;-56
2023/01/03 10:54:11;;;;;;;8.05;4.78;;;;;;;16.71;48.98;97856.66;2089176;28;20512;-56
2023/01/03 10:55:15;;;;;;;7.05;4.47;;;;;;;17.10;48.43;97853.81;2090300;28;20228;-56
2023/01/03 10:56:19;;;;;;;8.85;3.67;;;;;;;17.16;47.67;97851.78;2092531;28;20979;-56
2023/01/03 10:57:45;;;;;;;7.13;3.45;;;;;;;17.17;47.89;97851.69;2091242;28;21044;-56
2023/01/03 10:58:46;;;;;;;12.02;4.00;;;;;;;17.17;47.62;97851.69;2094515;28;20207;-56
2023/01/03 10:59:49;;;;;;;5.50;3.20;;;;;;;17.18;47.66;97852.53;2092324;28;20330;-56
2023/01/03 11:01:10;;;;;;;7.40;3.72;;;;;;;16.85;48.45;97848.91;2089367;28;20204;-56
2023/01/03 11:02:17;;;;;;;11.15;5.00;;;;;;;17.11;47.73;97844.94;2093292;28;20215;-56
2023/01/03 11:03:25;;;;;;;5.15;2.15;;;;;;;16.73;48.57;97847.72;2089159;28;20217;-56
2023/01/03 11:04:28;;;;;;;5.50;2.55;;;;;;;16.35;48.54;97847.84;2093152;28;20332;-56
2023/01/03 11:05:30;;;;;;;4.78;1.80;;;;;;;16.48;48.64;97850.72;2095366;28;20605;-56
2023/01/03 11:06:32;;;;;;;3.03;1.80;;;;;;;16.14;49.06;97840.06;2091756;28;20223;-56
2023/01/03 11:07:42;;;;;;;3.90;2.10;;;;;;;16.59;48.70;97847.59;2091874;28;20192;-56
2023/01/03 11:08:56;;;;;;;6.60;1.92;;;;;;;16.73;48.34;97844.25;2093283;28;20192;-57
2023/01/03 11:09:57;;;;;;;4.72;1.80;;;;;;;16.51;48.84;97844.50;2099864;28;20706;-57
2023/01/03 11:11:00;;;;;;;3.70;1.90;;;;;;;16.55;48.36;97849.50;2098888;28;20227;-56
2023/01/03 11:12:04;;;;;;;3.17;1.80;;;;;;;16.89;47.68;97836.41;2092410;28;20545;-56
2023/01/03 11:13:37;;;;;;;3.28;1.48;;;;;;;16.96;47.30;97843.97;2092318;28;20196;-56
2023/01/03 11:14:48;;;;;;;3.95;1.92;;;;;;;16.78;48.17;97843.06;2080671;28;20201;-56
2023/01/03 11:15:59;;;;;;;3.95;1.55;;;;;;;16.52;48.25;97851.44;2091313;28;20206;-56
2023/01/03 11:17:03;;;;;;;3.92;1.70;;;;;;;16.38;48.42;97849.50;2093324;28;20236;-56
2023/01/03 11:18:15;;;;;;;2.70;1.30;;;;;;;16.23;48.52;97854.59;2092455;28;20211;-56
2023/01/03 11:19:17;;;;;;;6.20;1.70;;;;;;;16.74;48.34;97848.59;2090516;28;20240;-56
2023/01/03 11:20:20;;;;;;;4.18;1.58;;;;;;;16.67;48.50;97844.56;2092188;28;20841;-56
2023/01/03 11:21:42;;;;;;;3.63;1.27;;;;;;;16.07;48.76;97843.91;2092466;28;20269;-57
2023/01/03 11:22:49;;;;;;;2.88;1.20;;;;;;;16.32;48.95;97843.59;2092562;28;20196;-56
2023/01/03 11:24:14;;;;;;;4.85;1.27;;;;;;;16.49;48.50;97839.28;2092440;28;20287;-56
2023/01/03 11:25:27;;;;;;;6.20;1.40;;;;;;;16.20;49.80;97841.56;2092245;28;20192;-56
2023/01/03 11:26:44;;;;;;;2.30;1.08;;;;;;;16.93;48.17;97841.47;2089161;28;20231;-57
2023/01/03 11:28:02;;;;;;;2.00;1.10;;;;;;;16.56;48.40;97842.47;2093134;28;20191;-56
2023/01/03 11:29:21;;;;;;;4.45;1.35;;;;;;;16.16;49.42;97840.00;2092271;28;20203;-56
2023/01/03 11:30:45;;;;;;;3.03;1.15;;;;;;;15.80;50.13;97841.63;2095401;28;20200;-56
2023/01/03 11:32:01;;;;;;;2.63;1.13;;;;;;;16.63;48.75;97839.44;2091005;28;20216;-56
2023/01/03 11:33:35;;;;;;;1.95;1.08;;;;;;;16.37;49.01;97842.53;2092001;28;20195;-56
2023/01/03 11:35:19;;;;;;;7.95;1.88;;;;;;;16.72;48.18;97840.78;2092316;28;20333;-57
2023/01/03 11:36:38;;;;;;;8.02;3.63;;;;;;;15.42;50.49;97835.53;2091051;28;20223;-57
2023/01/03 11:38:27;;;;;;;5.93;1.30;;;;;;;16.70;48.21;97837.34;2090043;28;20669;-57
2023/01/03 11:40:10;;;;;;;3.65;1.27;;;;;;;16.01;49.52;97836.34;2091829;28;20223;-56
2023/01/03 11:41:36;;;;;;;3.20;1.63;;;;;;;16.08;49.23;97832.47;2088055;28;20226;-56
2023/01/03 11:42:50;;;;;;;3.17;1.77;;;;;;;15.97;49.48;97834.75;2090223;28;20196;-57
2023/01/03 11:43:58;;;;;;;5.97;1.55;;;;;;;17.22;46.90;97839.09;2091619;28;20607;-57
2023/01/03 11:45:27;;;;;;;6.53;1.27;;;;;;;16.55;47.80;97833.69;2089856;28;20203;-57
2023/01/03 11:46:52;;;;;;;5.15;1.35;;;;;;;16.67;47.99;97826.09;2091350;28;20234;-57
2023/01/03 11:48:15;;;;;;;3.05;1.20;;;;;;;17.14;46.87;97825.44;2092759;28;20626;-57
2023/01/03 11:49:26;;;;;;;3.25;1.23;;;;;;;17.26;46.20;97816.06;2092210;28;20206;-57
2023/01/03 11:50:52;;;;;;;8.38;1.33;;;;;;;17.01;46.59;97822.59;2092013;28;20212;-56
2023/01/03 11:52:15;;;;;;;2.75;1.10;;;;;;;16.73;47.46;97824.00;2091613;28;20874;-57
2023/01/03 11:53:54;;;;;;;3.00;1.10;;;;;;;17.67;45.14;97818.22;2092304;28;20191;-57
2023/01/03 11:55:38;;;;;;;1.63;0.80;;;;;;;16.94;46.35;97816.81;2091603;28;20249;-56
2023/01/03 11:56:43;;;;;;;2.40;0.90;;;;;;;17.23;46.07;97813.56;2089149;28;20223;-56
2023/01/03 11:57:56;;;;;;;1.58;0.80;;;;;;;16.48;46.51;97817.34;2091156;28;20192;-56
2023/01/03 11:59:43;;;;;;;2.28;0.90;;;;;;;16.84;46.17;97807.63;2090394;28;20283;-56
2023/01/03 12:01:03;;;;;;;2.10;0.98;;;;;;;17.07;45.44;97813.53;2087183;28;20197;-57
2023/01/03 12:02:35;;;;;;;1.67;0.80;;;;;;;16.61;46.47;97807.03;2091479;28;20200;-56
2023/01/03 12:04:09;;;;;;;2.92;1.02;;;;;;;16.93;46.07;97809.81;2090211;28;20279;-56
2023/01/03 12:05:26;;;;;;;3.85;1.00;;;;;;;17.17;44.28;97814.75;2093870;28;20295;-57
2023/01/03 12:06:37;;;;;;;1.73;0.70;;;;;;;15.99;45.71;97812.69;2091233;28;20255;-57
2023/01/03 12:07:59;;;;;;;1.63;0.80;;;;;;;15.78;46.59;97808.41;2092272;28;20192;-57
2023/01/03 12:09:12;;;;;;;4.10;0.80;;;;;;;16.84;44.95;97814.72;2091026;28;20195;-56
2023/01/03 12:10:22;;;;;;;1.40;0.80;;;;;;;16.68;45.73;97817.25;2088698;28;20698;-57
2023/01/03 12:11:43;;;;;;;3.85;1.13;;;;;;;17.32;44.40;97809.56;2089015;28;20723;-57
2023/01/03 12:13:13;;;;;;;1.63;0.90;;;;;;;16.64;45.17;97812.13;2091219;28;20688;-57
2023/01/03 12:14:27;;;;;;;1.90;0.88;;;;;;;16.13;46.23;97809.38;2091743;28;20193;-57
2023/01/03 12:15:35;;;;;;;2.05;1.00;;;;;;;16.11;47.05;97805.13;2092015;28;20203;-57
2023/01/03 12:17:00;;;;;;;5.20;1.27;;;;;;;15.92;47.23;97803.38;2091124;28;20307;-57
2023/01/03 12:18:20;;;;;;;4.32;1.10;;;;;;;15.83;47.83;97807.31;2088331;28;20273;-57
2023/01/03 12:19:36;;;;;;;5.18;0.95;;;;;;;16.40;45.86;97798.41;2089944;28;20195;-57
2023/01/03 12:20:44;;;;;;;2.10;1.02;;;;;;;16.74;45.21;97798.50;2091762;28;20204;-57
2023/01/03 12:21:57;;;;;;;28.17;14.02;;;;;;;16.23;46.63;97806.31;2092363;28;20337;-57
2023/01/03 12:23:05;;;;;;;1.83;0.90;;;;;;;16.70;45.85;97810.97;2092398;28;20197;-57
2023/01/03 12:24:17;;;;;;;2.58;0.93;;;;;;;16.52;46.26;97804.84;2091902;28;20639;-57
2023/01/03 12:25:30;;;;;;;1.60;0.90;;;;;;;15.22;47.63;97794.31;2092175;28;20203;-57
2023/01/03 12:26:35;;;;;;;1.77;0.80;;;;;;;15.60;47.95;97803.06;2089736;28;20250;-57
2023/01/03 12:27:53;;;;;;;3.17;1.08;;;;;;;16.03;46.75;97804.66;2104562;28;20241;-57
2023/01/03 12:29:17;;;;;;;3.42;0.85;;;;;;;16.03;46.50;97804.66;2102471;28;20199;-57
2023/01/03 12:30:21;;;;;;;1.92;0.80;;;;;;;15.92;46.41;97798.13;2094742;28;20291;-56
2023/01/03 12:31:30;;;;;;;2.58;1.65;;;;;;;15.96;46.60;97802.31;2091224;28;20220;-56
2023/01/03 12:32:50;;;;;;;2.90;1.20;;;;;;;16.42;45.90;97804.47;2092228;28;20207;-57
2023/01/03 12:34:01;;;;;;;3.53;1.05;;;;;;;16.85;45.44;97804.06;2092148;28;20221;-56
2023/01/03 12:35:27;;;;;;;3.55;0.90;;;;;;;17.36;43.43;97805.84;2093457;28;20200;-56
2023/01/03 12:36:55;;;;;;;2.13;0.80;;;;;;;17.02;43.99;97808.47;2089233;28;20228;-57
2023/01/03 12:37:58;;;;;;;1.60;0.70;;;;;;;17.25;44.32;97803.78;2062484;28;20662;-57
2023/01/03 12:39:22;;;;;;;4.13;0.90;;;;;;;16.78;44.76;97803.50;2107896;28;20245;-57
2023/01/03 12:40:55;;;;;;;6.68;0.90;;;;;;;16.73;45.12;97804.69;2099286;28;20211;-57
2023/01/03 12:42:06;;;;;;;2.63;0.85;;;;;;;16.36;45.29;97796.84;2092637;28;20239;-57
2023/01/03 12:43:07;;;;;;;7.68;0.90;;;;;;;16.91;44.72;97795.88;2090248;28;20811;-57
2023/01/03 12:44:25;;;;;;;1.63;0.80;;;;;;;15.81;46.24;97793.34;2091681;28;20199;-57
2023/01/03 12:45:47;;;;;;;3.40;1.00;;;;;;;15.30;47.35;97787.78;2092245;28;20191;-57
2023/01/03 12:46:55;;;;;;;1.80;0.80;;;;;;;15.67;47.30;97790.50;2091818;28;20679;-57
2023/01/03 12:48:24;;;;;;;5.22;0.82;;;;;;;15.88;46.82;97790.44;2090644;28;20199;-56
2023/01/03 12:49:42;;;;;;;2.10;0.80;;;;;;;16.36;45.95;97790.75;2092703;28;20214;-57
2023/01/03 12:50:49;;;;;;;2.38;0.90;;;;;;;15.21;47.70;97782.09;2090848;28;20200;-57
2023/01/03 12:51:50;;;;;;;2.08;0.85;;;;;;;14.23;49.59;97785.38;2091032;28;20282;-57
2023/01/03 12:53:12;;;;;;;2.47;0.95;;;;;;;14.17;49.94;97789.97;2091979;28;20720;-57
2023/01/03 12:54:24;;;;;;;2.75;0.95;;;;;;;13.42;51.64;97790.31;2092635;28;20191;-57
2023/01/03 12:55:45;;;;;;;3.53;1.10;;;;;;;12.96;52.88;97787.59;2090361;28;20200;-57
2023/01/03 12:57:17;;;;;;;7.35;1.33;;;;;;;13.01;53.95;97786.50;2092203;28;20212;-57
2023/01/03 12:58:58;;;;;;;4.47;1.08;;;;;;;12.66;53.84;97785.13;2091254;28;20192;-56
2023/01/03 13:00:24;;;;;;;2.20;0.90;;;;;;;12.40;55.00;97779.03;2071958;28;20198;-56
2023/01/03 13:01:52;;;;;;;2.22;0.80;;;;;;;12.69;53.79;97779.81;2092290;28;20798;-56
2023/01/03 13:03:05;;;;;;;2.17;0.77;;;;;;;13.42;52.02;97775.44;2091203;28;20223;-56
2023/01/03 13:04:18;;;;;;;1.67;0.80;;;;;;;13.00;53.22;97773.47;2091585;28;20222;-57
2023/01/03 13:05:49;;;;;;;2.35;0.90;;;;;;;12.56;54.07;97780.22;2091618;28;20232;-57
2023/01/03 13:07:05;;;;;;;3.05;1.10;;;;;;;12.23;54.77;97780.47;2090547;28;20211;-56
2023/01/03 13:08:43;;;;;;;1.55;0.93;;;;;;;12.30;54.55;97780.25;2091820;28;20540;-57
2023/01/03 13:09:54;;;;;;;2.30;1.00;;;;;;;12.67;54.98;97774.63;2090977;28;20208;-56
2023/01/03 13:11:06;;;;;;;1.80;0.93;;;;;;;12.94;54.18;97777.16;2092007;28;20219;-57
2023/01/03 13:12:20;;;;;;;3.55;1.02;;;;;;;12.66;53.68;97780.78;2091926;28;20195;-58
2023/01/03 13:13:22;;;;;;;18.15;3.97;;;;;;;11.84;55.75;97769.50;2094590;28;20195;-57
2023/01/03 13:14:26;;;;;;;7.63;2.25;;;;;;;11.13;57.20;97758.59;2091115;28;20203;-57
2023/01/03 13:15:32;;;;;;;6.60;2.47;;;;;;;11.03;58.60;97771.06;2091552;28;20673;-57
2023/01/03 13:16:44;;;;;;;9.35;3.35;;;;;;;11.93;56.99;97780.56;2091782;28;20695;-57
2023/01/03 13:17:47;;;;;;;5.20;1.52;;;;;;;11.97;56.86;97775.22;2091365;28;20200;-57
2023/01/03 13:18:49;;;;;;;5.18;1.67;;;;;;;11.57;57.55;97775.53;2093927;28;20234;-57
2023/01/03 13:19:51;;;;;;;10.10;1.70;;;;;;;11.79;57.61;97772.25;2093438;28;20195;-57
2023/01/03 13:20:53;;;;;;;4.18;2.65;;;;;;;12.16;57.11;97771.09;2090187;28;20232;-57
2023/01/03 13:22:04;;;;;;;14.02;6.30;;;;;;;12.13;56.45;97771.22;2089204;28;20736;-58
2023/01/03 13:23:24;;;;;;;8.38;3.58;;;;;;;12.15;56.44;97772.03;2092239;28;20333;-57
2023/01/03 13:24:38;;;;;;;2.28;1.25;;;;;;;12.07;57.26;97771.41;2091112;28;20199;-58
2023/01/03 13:25:41;;;;;;;3.58;1.95;;;;;;;12.07;57.50;97772.28;2090869;28;20324;-58
2023/01/03 13:27:17;;;;;;;5.25;1.25;;;;;;;13.06;55.95;97781.09;2091727;28;20187;-58
2023/01/03 13:28:19;;;;;;;4.63;1.40;;;;;;;13.52;54.85;97776.78;2091144;28;20196;-58
2023/01/03 13:29:32;;;;;;;6.57;1.13;;;;;;;13.25;55.14;97777.81;2090762;28;20200;-58
2023/01/03 13:30:37;;;;;;;5.25;0.90;;;;;;;13.07;55.59;97780.19;2091258;28;20197;-58
2023/01/03 13:31:39;;;;;;;2.13;0.90;;;;;;;13.10;55.35;97776.59;2091532;28;20235;-58
2023/01/03 13:32:52;;;;;;;1.70;0.95;;;;;;;12.98;56.11;97770.91;2091700;28;20851;-57
2023/01/03 13:34:09;;;;;;;12.57;0.90;;;;;;;13.32;55.41;97772.28;2091464;28;20200;-58
2023/01/03 13:35:29;;;;;;;1.40;0.73;;;;;;;14.51;53.09;97766.69;2091879;28;20238;-58
2023/01/03 13:37:05;;;;;;;2.08;0.85;;;;;;;14.37;51.00;97764.63;2090339;28;20220;-58
2023/01/03 13:38:31;;;;;;;8.80;0.90;;;;;;;14.19;52.76;97761.88;2091667;28;20381;-58
2023/01/03 13:39:49;;;;;;;2.10;0.68;;;;;;;14.90;51.33;97762.44;2091861;28;20198;-57
2023/01/03 13:40:56;;;;;;;2.75;0.80;;;;;;;14.69;51.58;97763.31;2089920;28;20199;-57
2023/01/03 13:42:19;;;;;;;1.92;0.90;;;;;;;14.18;53.04;97761.94;2091691;28;20558;-58
2023/01/03 13:43:27;;;;;;;2.47;0.90;;;;;;;14.28;52.95;97765.03;2092574;28;20234;-57
2023/01/03 13:44:29;;;;;;;3.05;0.80;;;;;;;13.65;53.23;97764.03;2089018;28;20282;-57
2023/01/03 13:45:31;;;;;;;5.43;1.50;;;;;;;13.29;53.65;97767.13;2090659;28;20200;-57
2023/01/03 13:46:33;;;;;;;4.72;1.10;;;;;;;13.96;52.87;97762.81;2090352;28;20920;-57
2023/01/03 13:47:40;;;;;;;3.88;0.80;;;;;;;14.82;51.29;97754.88;2088446;28;20523;-57
2023/01/03 13:48:52;;;;;;;1.40;0.70;;;;;;;15.62;49.74;97753.84;2091834;28;20204;-57
2023/01/03 13:49:54;;;;;;;1.95;0.90;;;;;;;15.79;48.73;97753.03;2090609;28;20200;-57
2023/01/03 13:51:13;;;;;;;6.63;1.75;;;;;;;16.51;47.49;97757.50;2088768;28;20228;-59
2023/01/03 13:52:54;;;;;;;3.25;0.80;;;;;;;16.65;47.23;97750.56;2090928;28;20203;-58
2023/01/03 13:54:10;;;;;;;2.70;0.80;;;;;;;16.92;46.34;97754.50;2089656;28;20196;-58
2023/01/03 13:55:37;;;;;;;1.55;0.85;;;;;;;16.50;47.38;97753.97;2091203;28;20666;-58
2023/01/03 13:56:41;;;;;;;3.05;0.95;;;;;;;16.64;47.90;97759.38;2090017;28;20216;-58
2023/01/03 13:57:52;;;;;;;3.42;1.15;;;;;;;16.91;46.70;97755.44;2090143;28;20204;-58
2023/01/03 13:59:00;;;;;;;2.22;0.80;;;;;;;17.21;46.48;97768.78;2092240;28;20216;-58
2023/01/03 14:00:11;;;;;;;2.35;0.93;;;;;;;17.61;46.34;97768.38;2090567;28;20651;-58
2023/01/03 14:01:28;;;;;;;2.60;1.00;;;;;;;17.82;45.93;97768.13;2089858;28;20405;-58
2023/01/03 14:02:49;;;;;;;3.15;0.80;;;;;;;17.42;46.16;97764.13;2090441;28;20215;-58
2023/01/03 14:04:00;;;;;;;2.67;0.90;;;;;;;17.21;46.75;97773.22;2093086;28;20256;-59
2023/01/03 14:05:29;;;;;;;1.77;0.80;;;;;;;16.90;47.31;97767.75;2092437;28;20203;-58
2023/01/03 14:06:49;;;;;;;11.57;1.30;;;;;;;17.44;46.34;97759.59;2089966;28;20228;-58
2023/01/03 14:08:05;;;;;;;4.30;0.98;;;;;;;17.46;46.07;97765.66;2094109;28;20207;-58
2023/01/03 14:09:52;;;;;;;3.08;0.90;;;;;;;17.75;45.83;97771.13;2110519;28;20194;-58
2023/01/03 14:11:02;;;;;;;1.50;0.82;;;;;;;16.64;46.76;97774.38;2094144;28;20196;-58
2023/01/03 14:12:20;;;;;;;2.60;0.93;;;;;;;17.19;45.47;97767.16;2092734;28;20808;-58
2023/01/03 14:13:47;;;;;;;8.30;0.80;;;;;;;17.71;44.91;97769.59;2089388;28;20207;-58
2023/01/03 14:14:57;;;;;;;4.70;0.82;;;;;;;17.32;43.93;97768.22;2092404;28;20185;-58
2023/01/03 14:16:27;;;;;;;3.67;0.80;;;;;;;17.09;44.16;97772.06;2090112;28;20251;-58
2023/01/03 14:17:31;;;;;;;5.30;1.05;;;;;;;16.76;44.21;97775.50;2092047;28;20370;-59
2023/01/03 14:18:35;;;;;;;4.03;0.80;;;;;;;15.93;45.19;97765.56;2091518;28;20200;-59
2023/01/03 14:19:42;;;;;;;3.60;1.25;;;;;;;16.14;45.31;97768.94;2092486;28;20212;-58
2023/01/03 14:20:48;;;;;;;3.58;1.27;;;;;;;14.83;47.04;97767.09;2091790;28;20313;-58
2023/01/03 14:22:20;;;;;;;2.00;0.70;;;;;;;13.96;50.40;97772.47;2092840;28;20460;-58
2023/01/03 14:23:33;;;;;;;5.22;1.10;;;;;;;13.84;51.65;97779.03;2090721;28;20192;-59
2023/01/03 14:24:56;;;;;;;3.78;0.98;;;;;;;13.54;53.84;97771.47;2092211;28;20235;-58
2023/01/03 14:26:13;;;;;;;2.25;0.75;;;;;;;13.61;53.94;97772.09;2088589;28;20700;-58
2023/01/03 14:27:16;;;;;;;2.00;1.00;;;;;;;13.30;55.04;97779.34;2090343;28;20199;-58
2023/01/03 14:28:21;;;;;;;3.35;1.00;;;;;;;13.03;55.89;97774.19;2093873;28;20202;-58
2023/01/03 14:29:25;;;;;;;2.15;0.73;;;;;;;13.27;55.92;97781.22;2093547;28;20222;-58
2023/01/03 14:30:32;;;;;;;4.25;1.00;;;;;;;13.07;56.50;97775.78;2093533;28;20204;-59
2023/01/03 14:31:34;;;;;;;4.15;0.90;;;;;;;12.80;56.80;97776.78;2092580;28;20686;-58
2023/01/03 14:32:38;;;;;;;2.67;0.90;;;;;;;12.69;57.54;97774.56;2093957;28;20207;-58
2023/01/03 14:33:50;;;;;;;3.83;1.10;;;;;;;12.50;58.09;97771.72;2089849;28;20200;-58
2023/01/03 14:34:52;;;;;;;7.32;1.20;;;;;;;12.52;58.28;97777.75;2092197;28;20199;-58
2023/01/03 14:36:05;;;;;;;3.90;1.23;;;;;;;12.38;58.77;97781.72;2091636;28;20612;-58
2023/01/03 14:37:13;;;;;;;22.35;1.42;;;;;;;12.48;58.49;97777.03;2090827;28;20192;-58
2023/01/03 14:38:22;;;;;;;3.83;1.23;;;;;;;12.40;58.95;97777.31;2093170;28;20195;-58
2023/01/03 14:39:31;;;;;;;5.97;1.35;;;;;;;12.22;59.24;97775.28;2092881;28;20306;-58
2023/01/03 14:40:31;;;;;;;3.75;1.30;;;;;;;12.12;59.71;97776.50;2093357;28;20291;-59
2023/01/03 14:41:37;;;;;;;3.13;1.20;;;;;;;12.04;59.96;97779.38;2093258;28;20275;-58
2023/01/03 14:42:45;;;;;;;6.38;1.20;;;;;;;12.08;60.00;97768.72;2092949;28;20211;-58
2023/01/03 15:11:55;;;;;;;3.03;1.02;;;;;;;10.34;64.16;97784.22;2078436;27;20573;-56
2023/01/03 15:12:58;;;;;;;2.30;0.77;;;;;;;10.75;63.16;97804.06;2073771;28;20542;-55
2023/01/03 15:14:05;;;;;;;2.58;0.82;;;;;;;10.98;62.74;97799.06;2073772;28;20289;-56
2023/01/03 15:15:18;;;;;;;5.80;1.20;;;;;;;11.24;62.13;97800.97;2073176;28;20556;-56
2023/01/03 15:16:34;;;;;;;5.57;1.00;;;;;;;11.47;61.48;97805.50;2073039;28;20222;-56
2023/01/03 15:17:36;;;;;;;4.57;1.00;;;;;;;11.33;61.74;97805.91;2074925;28;20641;-56
2023/01/03 15:18:39;;;;;;;2.28;0.85;;;;;;;11.33;61.81;97803.28;2072764;28;20607;-56
2023/01/03 15:19:48;;;;;;;3.72;0.95;;;;;;;11.41;61.74;97805.69;2071539;28;20204;-57
2023/01/03 15:20:52;;;;;;;4.63;0.80;;;;;;;11.47;61.50;97808.13;2071296;28;20211;-57
2023/01/03 15:22:12;;;;;;;5.03;1.13;;;;;;;11.37;61.80;97810.13;2070091;28;20228;-57
2023/01/03 15:23:41;;;;;;;3.15;1.05;;;;;;;11.31;61.72;97801.63;2071934;28;20216;-56
2023/01/03 15:24:45;;;;;;;4.03;1.40;;;;;;;11.14;62.19;97802.13;2073769;28;20196;-56
2023/01/03 15:25:47;;;;;;;5.40;1.10;;;;;;;11.01;62.37;97801.59;2074858;28;20204;-56
2023/01/03 15:26:52;;;;;;;3.67;1.20;;;;;;;11.00;62.34;97805.13;2072043;28;20405;-57
2023/01/03 15:27:54;;;;;;;2.95;0.95;;;;;;;10.97;62.49;97800.84;2074416;28;20749;-56
2023/01/03 15:29:04;;;;;;;4.40;0.90;;;;;;;10.82;62.61;97799.50;2075471;28;20197;-56
